Airfield :
LOGIN :

Register | Disclaimer

   EN    FR    IT 

 










Legend :    VFR   Marginal VFR   IFR   Intensive IFR   Very Intensive IFR
Visi :
Ceiling :
>= 8 km
>= 3000ft
5 to 8 km
1000 to 3000 ft
1500m to 5 km
500 to 1000 ft
800 to 1500m
200 to 500 ft
< 800m
< 200 ft
Symbols :   Thunderstorms  Fog  Heavy snow  Heavy precipitations  Wind > 20 kt
SIGMETs :     Misc.  Thunderstorms  Icing  Turbulence  Mountain Waves  Volcanic Ashes







- Airport Elevation : 640 ft
- IATA code : AOC


EDAC - Altenburg-Nobitz

CURRENT METAR :
  • 220150Z AUTO 25009KT 9999 // FEW062/// 10/05 Q1020

EXPIRED METARs :
  • 220120Z AUTO 27008KT 9999 // SCT074/// OVC160/// 10/05 Q1020
  • 220050Z AUTO 28010KT 9999 // FEW079/// SCT180/// 11/05 Q1019
  • 220020Z AUTO 28010KT 250V310 9999 // FEW066/// 11/05 Q1019
  • 212350Z AUTO 26007KT 9999 // FEW072/// 11/05 Q1019
  • 212320Z AUTO 25006KT 9999 // FEW052/// 09/05 Q1019
  • 212250Z AUTO 28003KT 9999 // NCD 11/04 Q1019

TAF TAF EDAC
Valid from the 21 at 18:00 until the 22 at 03:00 UTC


211700Z 2118/2203 32020G35KT CAVOK
BECMG 2118/2122 28010KT
No reported NOTAMs for that airfield.



MET'MAP, your aeronautical weather chart ! - Copyright ORBIFLY December 2007 - Disclaimer

ORBIFLY MET'MAP TEAM :

Programming & Development : Alexandra Zaïnal
Concept & Development : Baudouin d'Aumeries
Co-Development & Prog : Marc-Olivier Méhu
Technical & hardware support : Manuel Goepfert

Contact : metmap@orbifly.com




SOURCES & CREDITS :

   NOAA